Details for QantasLink at YMIA




Go Back


Latest METAR
Local Time

YMIA 240700Z AUTO 14007KT 9999 // NCD 16/06 Q1025

24/05/2018, 17:39:23

Description
Results
QantasLink Logo
Number of Pilots based at YMIA
0 Pilots Based here
Number of QantasLink Flights Departed from YMIA
0 Flights Departed
Number of QantasLink Flights Arrived at YMIA
0 Flights Arrived
Number of QantasLink Schedules Departing from YMIA
4 Schedules
Number of QantasLink Schedules Arriving at YMIA
0 Schedules
Number of QantasLink Schedules Departing from YMIA availible today
2 Schedules Today
Number of QantasLink Schedules Arriving at YMIA availible today
0 Schedules Today
Average Landing Rate at YMIA
0 fpm
QantasLink Average Landing Rate at YMIA
0 fpm
Total Fuel Purchased at YMIA by QantasLink
0.00 kgs / 0.00 lbs

Pilots Based at YMIA


Pilot ID
Pilot Name
Pilot Rank
No. of Flights
No. of Flying Hours
There are no pilots assigned to this hub!   Will you be the first?
Content